createdAt,value
2018-02-14T00:02:00.960Z,24.73
2018-02-14T00:04:29.294Z,19.55
2018-02-14T00:06:57.262Z,18.80
2018-02-14T00:09:25.230Z,21.52
2018-02-14T00:11:54.244Z,20.52
2018-02-14T00:14:22.927Z,22.13
2018-02-14T00:16:51.797Z,21.87
2018-02-14T00:19:19.767Z,23.98
2018-02-14T00:21:47.956Z,20.80
2018-02-14T00:24:16.065Z,20.62
2018-02-14T00:26:44.237Z,23.00
2018-02-14T00:29:12.119Z,22.67
2018-02-14T00:31:40.200Z,22.00
2018-02-14T00:34:08.210Z,20.75
2018-02-14T00:36:36.161Z,20.73
2018-02-14T00:39:05.338Z,25.00
2018-02-14T00:41:33.869Z,22.30
2018-02-14T00:44:01.783Z,21.15
2018-02-14T00:46:29.733Z,27.13
2018-02-14T00:48:57.618Z,25.52
2018-02-14T00:51:25.544Z,21.55
2018-02-14T00:53:53.883Z,24.23
2018-02-14T00:56:22.539Z,19.85
2018-02-14T00:58:52.159Z,20.80
2018-02-14T01:01:20.103Z,22.67
2018-02-14T01:03:48.083Z,20.95
2018-02-14T01:06:16.038Z,23.05
2018-02-14T01:08:43.992Z,29.95
2018-02-14T01:11:11.959Z,29.12
2018-02-14T01:13:39.882Z,27.62
2018-02-14T01:16:08.553Z,19.65
2018-02-14T01:18:40.959Z,22.42
2018-02-14T01:21:08.925Z,24.15
2018-02-14T01:23:37.576Z,20.17
2018-02-14T01:26:05.655Z,21.12
2018-02-14T01:28:33.629Z,20.77
2018-02-14T01:31:01.486Z,20.17
2018-02-14T01:33:29.351Z,22.52
2018-02-14T01:35:57.254Z,20.27
2018-02-14T01:38:25.364Z,25.20
2018-02-14T01:40:53.362Z,22.58
2018-02-14T01:43:21.294Z,21.87
2018-02-14T01:45:49.189Z,20.50
2018-02-14T01:48:18.021Z,29.48
2018-02-14T01:50:45.973Z,34.85
2018-02-14T01:53:14.107Z,23.70
2018-02-14T01:55:42.063Z,22.48
2018-02-14T01:58:10.249Z,19.73
2018-02-14T02:00:38.158Z,17.17
2018-02-14T02:03:06.242Z,17.15
2018-02-14T02:05:34.293Z,19.00
2018-02-14T02:08:02.258Z,18.00
2018-02-14T02:10:30.902Z,18.27
2018-02-14T02:12:58.847Z,20.48
2018-02-14T02:15:26.988Z,17.48
2018-02-14T02:17:54.977Z,23.58
2018-02-14T02:20:23.429Z,20.40
2018-02-14T02:22:51.359Z,18.62
2018-02-14T02:25:19.446Z,19.90
2018-02-14T02:27:47.712Z,19.77
2018-02-14T02:30:15.685Z,19.23
2018-02-14T02:32:44.204Z,23.67
2018-02-14T02:35:13.052Z,21.35
2018-02-14T02:37:41.280Z,22.62
2018-02-14T02:40:42.437Z,19.45
2018-02-14T02:43:10.614Z,20.60
2018-02-14T02:45:38.860Z,21.05
2018-02-14T02:48:07.983Z,20.92
2018-02-14T02:50:37.026Z,18.30
2018-02-14T02:53:05.582Z,18.98
2018-02-14T02:55:33.714Z,21.05
2018-02-14T02:58:02.887Z,16.23
2018-02-14T03:00:32.490Z,16.65
2018-02-14T03:03:01.958Z,13.98
2018-02-14T03:05:29.977Z,17.00
2018-02-14T03:07:57.967Z,14.40
2018-02-14T03:10:26.754Z,19.08
2018-02-14T03:12:54.734Z,18.12
2018-02-14T03:15:23.410Z,18.27
2018-02-14T03:17:51.782Z,12.20
2018-02-14T03:20:20.482Z,18.00
2018-02-14T03:22:48.492Z,19.50
2018-02-14T03:25:16.498Z,21.75
2018-02-14T03:27:45.751Z,15.23
2018-02-14T03:30:13.893Z,15.95
2018-02-14T03:32:42.147Z,14.50
2018-02-14T03:35:10.834Z,14.02
2018-02-14T03:37:39.553Z,15.82
2018-02-14T03:40:07.534Z,12.77
2018-02-14T03:42:36.350Z,18.58
2018-02-14T03:45:04.343Z,16.33
2018-02-14T03:47:32.972Z,17.12
2018-02-14T03:50:00.870Z,20.75
2018-02-14T03:52:28.858Z,13.43
2018-02-14T03:54:57.428Z,19.40
2018-02-14T03:57:25.762Z,15.70
2018-02-14T03:59:53.685Z,18.83
2018-02-14T04:02:21.988Z,17.45
2018-02-14T04:04:50.134Z,18.30
2018-02-14T04:07:18.817Z,18.85
2018-02-14T04:09:47.853Z,16.90
2018-02-14T04:12:15.814Z,17.23
2018-02-14T04:14:44.000Z,17.33
2018-02-14T04:17:12.072Z,18.33
2018-02-14T04:19:40.814Z,17.77
2018-02-14T04:22:08.971Z,16.65
2018-02-14T04:24:37.120Z,16.00
2018-02-14T04:27:05.250Z,15.82
2018-02-14T04:29:33.348Z,22.27
2018-02-14T04:32:01.350Z,18.25
2018-02-14T04:34:29.384Z,20.42
2018-02-14T04:36:58.551Z,17.17
2018-02-14T04:39:27.333Z,17.10
2018-02-14T04:41:55.982Z,16.00
2018-02-14T04:44:23.902Z,16.12
2018-02-14T04:46:51.933Z,14.75
2018-02-14T04:49:20.717Z,23.15
2018-02-14T04:51:49.021Z,16.20
2018-02-14T04:54:16.961Z,20.67
2018-02-14T04:56:44.876Z,22.75
2018-02-14T04:59:12.880Z,16.60
2018-02-14T05:01:40.910Z,16.83
2018-02-14T05:04:09.017Z,20.30
2018-02-14T05:06:37.154Z,16.40
2018-02-14T05:09:05.343Z,16.65
2018-02-14T05:11:33.300Z,18.48
2018-02-14T05:14:01.328Z,18.87
2018-02-14T05:16:30.068Z,19.60
2018-02-14T05:18:58.067Z,19.00
2018-02-14T05:21:26.284Z,17.92
2018-02-14T05:23:54.182Z,19.77
2018-02-14T05:26:22.156Z,18.42
2018-02-14T05:28:50.085Z,18.85
2018-02-14T05:31:22.266Z,17.48
2018-02-14T05:33:50.444Z,15.65
2018-02-14T05:36:18.459Z,19.12
2018-02-14T05:38:47.238Z,19.37
2018-02-14T05:41:15.185Z,17.60
2018-02-14T05:43:43.234Z,18.40
2018-02-14T05:46:11.296Z,22.42
2018-02-14T05:48:39.687Z,20.95
2018-02-14T05:51:07.590Z,17.27
2018-02-14T05:53:35.490Z,18.25
2018-02-14T05:56:04.098Z,18.17
2018-02-14T05:58:32.200Z,13.70
2018-02-14T06:01:00.147Z,16.33
2018-02-14T06:03:28.013Z,18.25
2018-02-14T06:05:56.028Z,17.73
2018-02-14T06:08:24.248Z,19.85
2018-02-14T06:10:52.158Z,18.52
2018-02-14T06:13:20.215Z,14.55
2018-02-14T06:15:49.198Z,17.73
2018-02-14T06:18:17.132Z,19.27
2018-02-14T06:20:45.008Z,18.00
2018-02-14T06:23:13.102Z,16.37
2018-02-14T06:25:41.227Z,22.30
2018-02-14T06:28:09.992Z,17.37
2018-02-14T06:30:38.254Z,16.65
2018-02-14T06:33:06.257Z,15.43
2018-02-14T06:35:34.884Z,18.60
2018-02-14T06:38:02.796Z,16.02
2018-02-14T06:40:31.152Z,17.35
2018-02-14T06:42:59.354Z,19.48
2018-02-14T06:45:27.602Z,18.05
2018-02-14T06:47:55.569Z,17.95
2018-02-14T06:50:23.593Z,19.73
2018-02-14T06:52:52.694Z,18.65
2018-02-14T06:55:20.799Z,18.10
2018-02-14T06:57:48.779Z,18.02
2018-02-14T07:00:16.730Z,15.63
2018-02-14T07:02:44.735Z,17.65
2018-02-14T07:05:12.749Z,15.32
2018-02-14T07:07:41.662Z,19.70
2018-02-14T07:10:09.554Z,24.65
2018-02-14T07:12:37.566Z,23.85
2018-02-14T07:15:05.549Z,19.87
2018-02-14T07:17:33.542Z,19.08
2018-02-14T07:20:01.863Z,25.37
2018-02-14T07:22:30.069Z,26.50
2018-02-14T07:24:58.055Z,26.73
2018-02-14T07:27:26.130Z,27.45
2018-02-14T07:29:54.071Z,27.37
2018-02-14T07:32:22.210Z,26.40
2018-02-14T07:34:50.954Z,23.12
2018-02-14T07:37:18.888Z,24.20
2018-02-14T07:39:46.880Z,27.62
2018-02-14T07:42:14.967Z,24.15
2018-02-14T07:44:43.143Z,23.70
2018-02-14T07:47:11.322Z,25.42
2018-02-14T07:49:39.382Z,25.65
2018-02-14T07:52:07.382Z,22.92
2018-02-14T07:54:36.166Z,23.52
2018-02-14T07:57:04.620Z,20.98
2018-02-14T07:59:32.994Z,24.00
2018-02-14T08:02:00.878Z,16.52
2018-02-14T08:04:28.925Z,16.95
2018-02-14T08:06:57.150Z,16.70
2018-02-14T08:09:25.833Z,13.57
2018-02-14T08:11:54.598Z,21.87
2018-02-14T08:14:23.002Z,13.30
2018-02-14T08:16:51.014Z,15.80
2018-02-14T08:19:18.958Z,14.15
2018-02-14T08:21:47.082Z,19.00
2018-02-14T08:24:14.998Z,18.30
2018-02-14T08:26:43.010Z,15.27
2018-02-14T08:29:10.985Z,18.98
2018-02-14T08:31:38.927Z,14.23
2018-02-14T08:34:07.182Z,14.13
2018-02-14T08:36:35.174Z,15.88
2018-02-14T08:39:07.266Z,12.05
2018-02-14T08:41:35.266Z,15.40
2018-02-14T08:44:06.665Z,19.73
2018-02-14T08:46:36.421Z,16.00
2018-02-14T08:49:05.881Z,19.50
2018-02-14T08:51:33.903Z,15.52
2018-02-14T08:54:02.775Z,15.75
2018-02-14T08:56:31.457Z,18.92
2018-02-14T08:58:59.407Z,18.75
2018-02-14T09:01:27.677Z,18.92
2018-02-14T09:03:56.302Z,18.08
2018-02-14T09:06:25.293Z,25.95
2018-02-14T09:08:53.407Z,16.10
2018-02-14T09:11:21.382Z,15.95
2018-02-14T09:13:49.506Z,17.15
2018-02-14T09:16:17.561Z,19.12
2018-02-14T09:18:45.733Z,18.20
2018-02-14T09:21:14.035Z,17.98
2018-02-14T09:25:12.166Z,22.05
2018-02-14T09:27:40.039Z,20.00
2018-02-14T09:30:08.154Z,19.73
2018-02-14T09:32:37.161Z,19.87
2018-02-14T09:35:06.199Z,14.07
2018-02-14T09:37:34.432Z,24.48
2018-02-14T09:40:02.654Z,22.30
2018-02-14T09:42:30.639Z,18.05
2018-02-14T09:44:58.767Z,18.58
2018-02-14T09:47:26.872Z,19.17
2018-02-14T09:49:54.788Z,18.37
2018-02-14T09:52:22.825Z,23.90
2018-02-14T09:54:51.483Z,16.50
2018-02-14T09:57:19.427Z,22.05
2018-02-14T09:59:47.516Z,24.12
2018-02-14T10:02:15.536Z,27.95
2018-02-14T10:04:43.720Z,17.77
2018-02-14T10:07:11.796Z,16.00
2018-02-14T10:09:40.193Z,18.10
2018-02-14T10:12:08.283Z,20.45
2018-02-14T10:14:36.290Z,19.77
2018-02-14T10:17:04.296Z,19.42
2018-02-14T10:19:32.245Z,22.70
2018-02-14T10:22:00.284Z,17.80
2018-02-14T10:24:29.295Z,19.92
2018-02-14T10:26:57.341Z,16.80
2018-02-14T10:29:25.860Z,21.83
2018-02-14T10:31:54.224Z,27.25
2018-02-14T10:34:22.270Z,19.10
2018-02-14T10:36:51.051Z,22.67
2018-02-14T10:39:18.970Z,17.17
2018-02-14T10:41:47.502Z,19.52
2018-02-14T10:44:15.829Z,18.55
2018-02-14T10:46:43.916Z,18.65
2018-02-14T10:49:11.971Z,21.73
2018-02-14T10:51:39.915Z,21.92
2018-02-14T10:54:08.111Z,22.67
2018-02-14T10:56:36.184Z,17.52
2018-02-14T10:59:04.489Z,14.87
2018-02-14T11:01:37.286Z,18.23
2018-02-14T11:04:10.031Z,18.27
2018-02-14T11:06:38.104Z,15.80
2018-02-14T11:09:06.175Z,17.92
2018-02-14T11:11:34.143Z,20.10
2018-02-14T11:14:02.946Z,21.17
2018-02-14T11:16:31.452Z,18.90
2018-02-14T11:18:59.492Z,18.40
2018-02-14T11:21:27.358Z,17.77
2018-02-14T11:23:56.047Z,19.40
2018-02-14T11:26:24.320Z,17.47
2018-02-14T11:28:52.408Z,13.77
2018-02-14T11:31:20.335Z,13.13
2018-02-14T11:33:48.289Z,13.47
2018-02-14T11:36:16.578Z,22.33
2018-02-14T11:38:44.552Z,11.80
2018-02-14T11:41:12.700Z,15.27
2018-02-14T11:43:40.630Z,13.20
2018-02-14T11:46:08.566Z,15.30
2018-02-14T11:48:36.651Z,13.07
2018-02-14T11:51:04.644Z,14.77
2018-02-14T11:53:32.691Z,13.83
2018-02-14T11:56:00.664Z,14.83
2018-02-14T11:58:28.828Z,12.97
2018-02-14T12:00:56.713Z,11.60
2018-02-14T12:03:24.707Z,13.73
2018-02-14T12:05:53.319Z,11.43
2018-02-14T12:08:21.287Z,7.80
2018-02-14T12:10:49.283Z,9.13
2018-02-14T12:13:17.565Z,11.50
2018-02-14T12:15:45.726Z,10.27
2018-02-14T12:18:14.682Z,8.33
2018-02-14T12:20:42.702Z,9.77
2018-02-14T12:23:11.067Z,7.23
2018-02-14T12:25:39.748Z,9.47
2018-02-14T12:28:07.762Z,6.03
2018-02-14T12:30:36.538Z,9.10
2018-02-14T12:33:04.566Z,5.97
2018-02-14T12:35:32.825Z,9.27
2018-02-14T12:38:01.960Z,9.43
2018-02-14T12:40:30.078Z,5.83
2018-02-14T12:42:59.320Z,8.47
2018-02-14T12:45:27.392Z,10.60
2018-02-14T12:47:55.492Z,8.67
2018-02-14T12:50:23.918Z,7.17
2018-02-14T12:52:51.930Z,4.77
2018-02-14T12:55:19.984Z,8.53
2018-02-14T12:57:48.261Z,7.60
2018-02-14T13:00:16.604Z,13.43
2018-02-14T13:02:45.021Z,8.53
2018-02-14T13:05:13.402Z,5.87
2018-02-14T13:07:41.740Z,8.27
2018-02-14T13:10:09.742Z,7.87
2018-02-14T13:12:38.087Z,11.23
2018-02-14T13:17:56.946Z,5.60
2018-02-14T13:20:26.445Z,9.47
2018-02-14T13:22:55.381Z,7.83
2018-02-14T13:25:24.412Z,9.27
2018-02-14T13:27:52.978Z,13.17
2018-02-14T13:30:22.062Z,11.00
2018-02-14T13:32:50.725Z,19.03
2018-02-14T13:35:19.545Z,10.03
2018-02-14T13:37:47.853Z,9.47
2018-02-14T13:40:16.511Z,8.17
2018-02-14T13:42:45.688Z,8.00
2018-02-14T13:45:14.515Z,8.67
2018-02-14T13:47:44.160Z,10.60
2018-02-14T13:50:12.694Z,10.57
2018-02-14T13:52:41.493Z,10.00
2018-02-14T13:55:11.755Z,9.70
2018-02-14T13:57:41.638Z,8.27
2018-02-14T14:00:12.100Z,10.33
2018-02-14T14:02:43.672Z,8.90
2018-02-14T14:05:12.640Z,9.80
2018-02-14T14:07:42.680Z,9.50
2018-02-14T14:10:11.836Z,10.07
2018-02-14T14:12:40.632Z,8.50
2018-02-14T14:15:09.486Z,12.87
2018-02-14T14:17:38.656Z,10.77
2018-02-14T14:20:07.595Z,11.23
2018-02-14T14:22:36.692Z,8.67
2018-02-14T14:25:06.097Z,9.23
2018-02-14T14:27:34.989Z,8.73
2018-02-14T14:30:03.782Z,10.03
2018-02-14T14:32:32.573Z,10.80
2018-02-14T14:35:03.298Z,11.40
2018-02-14T14:37:31.537Z,14.77
2018-02-14T14:40:00.136Z,8.70
2018-02-14T14:42:29.276Z,19.53
2018-02-14T14:44:57.878Z,13.17
2018-02-14T14:47:26.936Z,9.40
2018-02-14T14:49:55.819Z,13.70
2018-02-14T14:52:24.178Z,12.27
2018-02-14T14:54:52.390Z,11.40
2018-02-14T14:57:20.767Z,13.30
2018-02-14T14:59:49.077Z,9.70
2018-02-14T15:02:18.117Z,9.93
2018-02-14T15:04:47.095Z,9.03
2018-02-14T15:07:16.998Z,11.57
2018-02-14T15:09:45.359Z,52.83
2018-02-14T15:12:13.548Z,11.20
2018-02-14T15:14:41.707Z,8.73
2018-02-14T15:17:10.006Z,16.07
2018-02-14T15:19:38.580Z,11.87
2018-02-14T15:22:06.974Z,11.63
2018-02-14T15:24:35.416Z,11.47
2018-02-14T15:27:04.807Z,10.37
2018-02-14T15:29:35.552Z,12.37
2018-02-14T15:32:05.304Z,11.70
2018-02-14T15:34:41.044Z,12.77
2018-02-14T15:37:17.481Z,13.30
2018-02-14T15:39:47.112Z,9.20
2018-02-14T15:42:26.313Z,13.50
2018-02-14T15:44:57.210Z,8.43
2018-02-14T15:47:28.703Z,9.67
2018-02-14T15:49:58.264Z,11.00
2018-02-14T15:52:27.407Z,12.03
2018-02-14T15:55:05.313Z,10.33
2018-02-14T15:57:41.567Z,9.73
2018-02-14T16:00:18.892Z,13.10
2018-02-14T16:02:57.334Z,15.43
2018-02-14T16:05:37.845Z,11.93
2018-02-14T16:08:09.091Z,11.17
2018-02-14T16:10:37.586Z,10.87
2018-02-14T16:13:15.669Z,10.47
2018-02-14T16:15:46.004Z,8.87
2018-02-14T16:18:14.803Z,6.60
2018-02-14T16:20:44.707Z,7.03
2018-02-14T16:23:13.070Z,10.37
2018-02-14T16:25:41.967Z,8.07
2018-02-14T16:28:10.344Z,9.17
2018-02-14T16:30:38.720Z,9.70
2018-02-14T16:33:07.061Z,10.37
2018-02-14T16:35:36.910Z,10.13
2018-02-14T16:38:06.020Z,11.57
2018-02-14T16:40:35.691Z,13.07
2018-02-14T16:43:04.730Z,10.50
2018-02-14T16:45:33.912Z,12.53
2018-02-14T16:48:02.794Z,10.03
2018-02-14T16:50:31.471Z,11.13
2018-02-14T16:53:00.697Z,12.13
2018-02-14T16:55:29.568Z,12.98
2018-02-14T16:58:15.329Z,15.37
2018-02-14T17:00:44.392Z,12.70
2018-02-14T17:03:13.750Z,12.60
2018-02-14T17:05:47.167Z,12.63
2018-02-14T17:08:25.602Z,13.15
2018-02-14T17:10:56.924Z,11.50
2018-02-14T17:13:27.310Z,14.67
2018-02-14T17:15:59.933Z,13.52
2018-02-14T17:18:28.674Z,14.15
2018-02-14T17:21:06.353Z,11.93
2018-02-14T17:23:34.772Z,14.45
2018-02-14T17:26:11.474Z,15.10
2018-02-14T17:28:43.316Z,16.45
2018-02-14T17:31:12.105Z,13.75
2018-02-14T17:33:42.740Z,12.17
2018-02-14T17:36:12.651Z,20.45
2018-02-14T17:38:41.913Z,17.73
2018-02-14T17:41:10.348Z,16.60
2018-02-14T17:43:45.974Z,13.77
2018-02-14T17:46:14.685Z,15.95
2018-02-14T17:48:43.070Z,18.85
2018-02-14T17:51:13.264Z,15.63
2018-02-14T17:53:42.485Z,15.70
2018-02-14T17:56:16.192Z,19.70
2018-02-14T17:58:50.323Z,14.38
2018-02-14T18:01:27.150Z,18.42
2018-02-14T18:03:57.891Z,18.52
2018-02-14T18:06:26.429Z,15.82
2018-02-14T18:08:58.142Z,21.02
2018-02-14T18:11:27.322Z,23.33
2018-02-14T18:14:14.079Z,18.37
2018-02-14T18:16:43.022Z,19.70
2018-02-14T18:19:11.281Z,20.90
2018-02-14T18:21:43.973Z,18.73
2018-02-14T18:24:12.764Z,19.12
2018-02-14T18:26:43.229Z,18.80
2018-02-14T18:29:22.465Z,18.20
2018-02-14T18:32:02.413Z,19.85
2018-02-14T18:34:30.895Z,19.12
2018-02-14T18:36:59.039Z,20.92
2018-02-14T18:39:29.122Z,18.85
2018-02-14T18:41:57.894Z,22.60
2018-02-14T18:44:34.566Z,18.55
2018-02-14T18:47:07.759Z,19.48
2018-02-14T18:49:36.111Z,19.95
2018-02-14T18:52:04.548Z,19.83
2018-02-14T18:54:32.716Z,19.77
2018-02-14T18:57:00.895Z,23.62
2018-02-14T18:59:30.876Z,23.12
2018-02-14T19:01:59.696Z,24.25
2018-02-14T19:04:28.981Z,23.02
2018-02-14T19:06:58.188Z,25.45
2018-02-14T19:09:32.965Z,21.30
2018-02-14T19:12:01.627Z,21.77
2018-02-14T19:14:35.367Z,20.05
2018-02-14T19:17:04.394Z,19.45
2018-02-14T19:19:32.932Z,24.80
2018-02-14T19:22:01.207Z,20.52
2018-02-14T19:24:30.179Z,22.17
2018-02-14T19:26:59.443Z,21.92
2018-02-14T19:29:27.740Z,22.50
2018-02-14T19:31:58.018Z,26.48
2018-02-14T19:34:26.016Z,20.00
2018-02-14T19:36:54.499Z,22.45
2018-02-14T19:39:25.387Z,24.80
2018-02-14T19:41:53.803Z,23.23
2018-02-14T19:44:22.147Z,25.08
2018-02-14T19:46:50.502Z,22.95
2018-02-14T19:49:19.496Z,24.63
2018-02-14T19:51:47.652Z,25.60
2018-02-14T19:54:16.920Z,31.92
2018-02-14T19:56:47.905Z,31.30
2018-02-14T19:59:16.457Z,23.92
2018-02-14T20:01:47.156Z,23.45
2018-02-14T20:04:15.492Z,21.35
2018-02-14T20:06:43.830Z,21.77
2018-02-14T20:09:11.906Z,22.17
2018-02-14T20:11:51.623Z,18.67
2018-02-14T20:14:23.185Z,21.45
2018-02-14T20:16:54.866Z,20.62
2018-02-14T20:19:23.208Z,19.50
2018-02-14T20:21:54.437Z,24.67
2018-02-14T20:24:23.837Z,24.50
2018-02-14T20:26:53.367Z,20.02
2018-02-14T20:29:22.259Z,20.90
2018-02-14T20:31:51.450Z,23.42
2018-02-14T20:34:21.553Z,18.70
2018-02-14T20:36:50.819Z,21.95
2018-02-14T20:39:23.164Z,23.25
2018-02-14T20:41:51.820Z,25.10
2018-02-14T20:44:30.541Z,25.23
2018-02-14T20:47:00.802Z,22.30
2018-02-14T20:49:31.448Z,24.00
2018-02-14T20:52:01.789Z,20.92
2018-02-14T20:54:30.192Z,19.52
2018-02-14T20:56:59.026Z,20.08
2018-02-14T20:59:27.695Z,23.35
2018-02-14T21:01:56.970Z,24.63
2018-02-14T21:04:28.116Z,25.48
2018-02-14T21:06:57.696Z,23.80
2018-02-14T21:09:28.019Z,26.42
2018-02-14T21:11:59.233Z,28.30
2018-02-14T21:14:31.836Z,28.05
2018-02-14T21:17:00.350Z,29.75
2018-02-14T21:19:28.730Z,25.60
2018-02-14T21:21:59.507Z,28.00
2018-02-14T21:24:28.200Z,32.35
2018-02-14T21:26:56.988Z,32.40
2018-02-14T21:29:29.777Z,26.98
2018-02-14T21:32:01.349Z,24.45
2018-02-14T21:34:30.166Z,25.70
2018-02-14T21:37:00.430Z,28.20
2018-02-14T21:39:33.718Z,26.50
2018-02-14T21:42:01.881Z,22.10
2018-02-14T21:44:29.926Z,23.02
2018-02-14T21:46:57.891Z,24.63
2018-02-14T21:49:25.790Z,22.58
2018-02-14T21:51:56.171Z,22.20
2018-02-14T21:54:24.213Z,21.73
2018-02-14T21:56:52.233Z,20.17
2018-02-14T21:59:20.232Z,20.27
2018-02-14T22:01:48.223Z,19.92
2018-02-14T22:04:16.227Z,18.92
2018-02-14T22:06:44.239Z,25.37
2018-02-14T22:09:13.073Z,18.00
2018-02-14T22:11:41.021Z,16.80
2018-02-14T22:14:08.926Z,18.85
2018-02-14T22:16:36.977Z,14.07
2018-02-14T22:19:04.938Z,14.43
2018-02-14T22:22:14.228Z,16.75
2018-02-14T22:28:17.522Z,12.00
2018-02-14T22:30:45.490Z,13.23
2018-02-14T22:33:15.342Z,12.73
2018-02-14T22:35:44.230Z,12.98
2018-02-14T22:38:12.930Z,15.07
2018-02-14T22:40:40.929Z,17.35
2018-02-14T22:43:10.072Z,16.55
2018-02-14T22:45:48.407Z,21.45
2018-02-14T22:48:19.468Z,16.73
2018-02-14T22:50:47.938Z,22.75
2018-02-14T22:53:16.070Z,20.08
2018-02-14T22:55:44.055Z,15.65
2018-02-14T22:58:12.862Z,19.58
2018-02-14T23:00:40.892Z,18.10
2018-02-14T23:03:09.756Z,19.80
2018-02-14T23:05:38.518Z,21.90
2018-02-14T23:08:06.789Z,19.98
2018-02-14T23:10:34.739Z,15.43
2018-02-14T23:13:03.401Z,19.87
2018-02-14T23:15:31.330Z,18.87
2018-02-14T23:18:00.155Z,18.17
2018-02-14T23:20:29.745Z,17.83
2018-02-14T23:22:57.696Z,17.20
2018-02-14T23:25:25.659Z,15.13
2018-02-14T23:27:53.655Z,14.90
2018-02-14T23:30:26.202Z,15.13
2018-02-14T23:32:54.081Z,13.23
2018-02-14T23:35:22.045Z,12.57
2018-02-14T23:37:50.075Z,15.63
2018-02-14T23:40:18.774Z,14.35
2018-02-14T23:42:46.736Z,9.88
2018-02-14T23:45:29.398Z,10.88
2018-02-14T23:47:57.470Z,11.40
2018-02-14T23:50:25.498Z,10.52
2018-02-14T23:52:54.389Z,12.23
2018-02-14T23:55:23.208Z,11.10
2018-02-14T23:57:51.258Z,12.25
